Accueil
METAR-TAF:

METAR-TAF

Aéroports :

Aéroport de Rome-Urbe

Rome, Italie

latitude: 41-57N, longitude: 012-30E, altitude: 18 m

Observation

Le bulletin a été fait il y a 8 heures et 19 minutes, à 15:50 UTC
Vent 6 kt de sud
Température 14°C
Humidité 82%
Pression 1022 hPa
Visibilité: 9000 m
Nuages épars à une hauteur de 2500 ft

METAR: LIRU 251550Z 19006KT 9000 SCT025 14/11 Q1022

Heure: 01:09 (00:09 UTC)

Prévision

Le bulletin a été fait il y a 10 heures et 9 minutes, à 14:00 UTC
Prévision valable du 25 à 15 UTC au 25 à 24 UTC
Vent 5 kt de direction variable
Visibilité: 7000 m
Nuages épars à une hauteur de 2500 ft

TAF: LIRU 251400Z 2515/2524 VRB05KT 7000 SCT025

Observations et prévisions météorologiques de plus de 4000 aéroports (messages METAR et TAF).

Les stations disponibles sont représentées par des disques jaunes et rouges sur la carte.

Passer la souris dessus pour voir le nom de la station.

Cliquer dessus pour voir les observations et prévisions météorologiques.

Pour changer de carte: cliquez sur les boutons verts avec une croix noire pour zoomer, sur le bouton vert avec un tiret pour effectuer un zoom arrière, ou sur les flèches vertes pour les cartes adjacentes.


METAR-TAF: